createdAt,value
2023-04-09T00:00:18.827Z,29.20
2023-04-09T00:02:54.019Z,29.67
2023-04-09T00:05:23.880Z,42.38
2023-04-09T00:07:55.201Z,36.30
2023-04-09T00:10:34.561Z,42.90
2023-04-09T00:13:03.826Z,35.30
2023-04-09T00:15:32.985Z,36.03
2023-04-09T00:18:02.241Z,31.67
2023-04-09T00:20:31.578Z,37.85
2023-04-09T00:23:03.722Z,26.38
2023-04-09T00:25:33.157Z,26.65
2023-04-09T00:28:02.208Z,25.65
2023-04-09T00:30:31.616Z,30.27
2023-04-09T00:33:01.288Z,27.63
2023-04-09T00:35:30.998Z,33.28
2023-04-09T00:38:00.467Z,38.13
2023-04-09T00:40:37.800Z,49.45
2023-04-09T00:43:07.418Z,53.17
2023-04-09T00:45:36.857Z,59.40
2023-04-09T00:48:06.527Z,64.32
2023-04-09T00:50:36.074Z,62.28
2023-04-09T00:53:06.721Z,55.85
2023-04-09T00:55:38.480Z,52.88
2023-04-09T00:58:08.129Z,44.67
2023-04-09T01:00:37.639Z,44.38
2023-04-09T01:03:08.950Z,32.88
2023-04-09T01:05:46.422Z,25.67
2023-04-09T01:08:30.769Z,30.85
2023-04-09T01:11:18.288Z,24.55
2023-04-09T01:13:56.402Z,21.25
2023-04-09T01:16:26.011Z,20.52
2023-04-09T01:19:01.867Z,17.20
2023-04-09T01:21:34.128Z,17.60
2023-04-09T01:24:18.240Z,17.38
2023-04-09T01:27:03.952Z,15.90
2023-04-09T01:29:59.795Z,17.60
2023-04-09T01:32:32.109Z,20.27
2023-04-09T01:35:02.784Z,20.38
2023-04-09T01:37:33.336Z,19.88
2023-04-09T01:40:04.531Z,21.02
2023-04-09T01:42:34.894Z,17.83
2023-04-09T01:45:13.011Z,20.52
2023-04-09T01:47:43.328Z,19.08
2023-04-09T01:50:22.967Z,17.90
2023-04-09T01:52:57.543Z,16.05
2023-04-09T01:55:26.806Z,16.10
2023-04-09T01:57:56.184Z,17.17
2023-04-09T02:00:33.265Z,19.05
2023-04-09T02:03:10.110Z,18.15
2023-04-09T02:08:26.604Z,17.50
2023-04-09T02:11:00.738Z,14.93
2023-04-09T02:13:37.382Z,16.52
2023-04-09T02:16:11.226Z,15.40
2023-04-09T02:18:40.549Z,16.08
2023-04-09T02:21:15.702Z,16.30
2023-04-09T02:23:45.266Z,16.77
2023-04-09T02:26:14.428Z,17.92
2023-04-09T02:28:43.721Z,18.92
2023-04-09T02:31:25.945Z,18.55
2023-04-09T02:36:35.149Z,18.15
2023-04-09T02:39:04.777Z,18.00
2023-04-09T02:41:34.161Z,19.75
2023-04-09T02:44:03.534Z,16.90
2023-04-09T02:46:35.123Z,16.30
2023-04-09T02:49:10.112Z,18.40
2023-04-09T02:51:39.533Z,18.95
2023-04-09T02:54:08.830Z,18.38
2023-04-09T02:56:38.102Z,18.73
2023-04-09T02:59:07.589Z,19.13
2023-04-09T03:01:44.767Z,17.08
2023-04-09T03:04:14.863Z,16.80
2023-04-09T03:06:44.539Z,22.17
2023-04-09T03:09:13.763Z,23.92
2023-04-09T03:11:42.964Z,19.65
2023-04-09T03:14:12.253Z,19.98
2023-04-09T03:16:43.440Z,19.48
2023-04-09T03:19:12.633Z,18.83
2023-04-09T03:21:42.108Z,18.85
2023-04-09T03:24:16.400Z,20.95
2023-04-09T03:26:46.004Z,22.10
2023-04-09T03:29:17.404Z,21.17
2023-04-09T03:31:48.915Z,21.27
2023-04-09T03:34:25.071Z,23.13
2023-04-09T03:36:57.362Z,21.55
2023-04-09T03:39:32.022Z,21.77
2023-04-09T03:42:01.436Z,21.00
2023-04-09T03:44:36.072Z,21.20
2023-04-09T03:47:23.714Z,20.13
2023-04-09T03:49:53.751Z,20.02
2023-04-09T03:52:27.273Z,20.92
2023-04-09T03:55:06.077Z,21.10
2023-04-09T03:57:35.449Z,19.02
2023-04-09T04:00:06.786Z,18.40
2023-04-09T04:02:55.203Z,17.73
2023-04-09T04:05:44.549Z,16.77
2023-04-09T04:08:17.184Z,15.85
2023-04-09T04:13:22.649Z,16.95
2023-04-09T04:15:57.805Z,15.73
2023-04-09T04:18:29.104Z,14.45
2023-04-09T04:21:08.573Z,14.45
2023-04-09T04:23:37.867Z,15.18
2023-04-09T04:26:19.349Z,14.85
2023-04-09T04:28:55.399Z,15.07
2023-04-09T04:31:39.148Z,15.68
2023-04-09T04:34:10.377Z,15.45
2023-04-09T04:36:48.504Z,16.20
2023-04-09T04:39:19.126Z,16.65
2023-04-09T04:42:03.203Z,17.15
2023-04-09T04:44:32.839Z,18.45
2023-04-09T04:47:18.548Z,15.35
2023-04-09T04:49:51.213Z,14.88
2023-04-09T04:52:26.079Z,16.33
2023-04-09T04:54:56.704Z,16.55
2023-04-09T04:57:27.554Z,16.42
2023-04-09T04:59:57.325Z,15.88
2023-04-09T05:02:26.679Z,16.48
2023-04-09T05:05:18.541Z,16.45
2023-04-09T05:07:53.580Z,16.58
2023-04-09T05:10:28.754Z,17.05
2023-04-09T05:13:04.402Z,16.00
2023-04-09T05:15:43.437Z,17.50
2023-04-09T05:18:13.017Z,17.20
2023-04-09T05:20:44.520Z,17.17
2023-04-09T05:23:14.022Z,16.75
2023-04-09T05:25:52.779Z,16.92
2023-04-09T05:28:36.157Z,17.33
2023-04-09T05:31:12.912Z,16.75
2023-04-09T05:33:48.190Z,16.65
2023-04-09T05:36:27.608Z,16.17
2023-04-09T05:38:57.260Z,16.48
2023-04-09T05:41:26.650Z,16.75
2023-04-09T05:44:16.248Z,16.77
2023-04-09T05:46:46.225Z,16.83
2023-04-09T05:49:24.433Z,17.13
2023-04-09T05:51:58.699Z,17.67
2023-04-09T05:54:38.861Z,15.52
2023-04-09T05:57:11.091Z,16.98
2023-04-09T06:02:25.657Z,16.00
2023-04-09T06:04:57.027Z,15.85
2023-04-09T06:07:40.505Z,14.98
2023-04-09T06:10:11.033Z,15.50
2023-04-09T06:12:41.598Z,15.40
2023-04-09T06:15:12.532Z,14.13
2023-04-09T06:17:48.126Z,14.05
2023-04-09T06:20:17.573Z,13.82
2023-04-09T06:22:48.731Z,14.05
2023-04-09T06:25:24.720Z,13.63
2023-04-09T06:30:31.507Z,13.80
2023-04-09T06:33:00.780Z,11.57
2023-04-09T06:38:12.059Z,11.60
2023-04-09T06:40:47.169Z,11.68
2023-04-09T06:43:16.303Z,11.77
2023-04-09T06:45:51.205Z,11.93
2023-04-09T06:48:20.490Z,12.05
2023-04-09T06:50:49.678Z,12.02
2023-04-09T06:53:26.171Z,11.02
2023-04-09T06:55:57.135Z,11.88
2023-04-09T06:58:26.529Z,12.32
2023-04-09T07:00:56.046Z,12.48
2023-04-09T07:03:27.520Z,12.48
2023-04-09T07:08:40.238Z,11.13
2023-04-09T07:11:10.741Z,10.98
2023-04-09T07:13:39.969Z,11.25
2023-04-09T07:16:15.894Z,11.20
2023-04-09T07:18:45.162Z,11.13
2023-04-09T07:21:14.365Z,11.02
2023-04-09T07:23:45.564Z,11.32
2023-04-09T07:26:20.062Z,10.90
2023-04-09T07:28:49.366Z,10.07
2023-04-09T07:31:18.820Z,10.15
2023-04-09T07:33:48.143Z,10.15
2023-04-09T07:36:17.350Z,9.60
2023-04-09T07:38:48.532Z,9.07
2023-04-09T07:41:17.946Z,9.70
2023-04-09T07:43:47.302Z,9.55
2023-04-09T07:46:21.570Z,9.00
2023-04-09T07:48:52.005Z,9.65
2023-04-09T07:51:42.819Z,9.75
2023-04-09T07:54:21.507Z,9.65
2023-04-09T07:59:27.573Z,9.30
2023-04-09T08:01:57.174Z,8.98
2023-04-09T08:04:27.504Z,8.38
2023-04-09T08:06:56.832Z,7.93
2023-04-09T08:09:52.953Z,7.68
2023-04-09T08:12:22.372Z,8.02
2023-04-09T08:14:52.283Z,7.95
2023-04-09T08:17:21.834Z,7.43
2023-04-09T08:19:51.597Z,8.15
2023-04-09T08:22:25.948Z,9.50
2023-04-09T08:25:11.672Z,6.75
2023-04-09T08:27:46.525Z,6.80
2023-04-09T08:30:16.919Z,6.78
2023-04-09T08:32:48.195Z,7.55
2023-04-09T08:35:17.763Z,7.20
2023-04-09T08:37:47.330Z,6.82
2023-04-09T08:43:16.534Z,6.68
2023-04-09T08:45:47.149Z,7.20
2023-04-09T08:48:16.723Z,7.22
2023-04-09T08:51:03.062Z,7.25
2023-04-09T08:53:38.678Z,6.88
2023-04-09T08:56:10.212Z,6.25
2023-04-09T08:58:46.593Z,6.47
2023-04-09T09:04:05.233Z,6.75
2023-04-09T09:06:36.586Z,7.05
2023-04-09T09:09:10.274Z,7.18
2023-04-09T09:11:42.960Z,6.68
2023-04-09T09:14:13.692Z,6.80
2023-04-09T09:16:49.476Z,6.88
2023-04-09T09:19:33.346Z,6.97
2023-04-09T09:22:05.957Z,6.75
2023-04-09T09:24:35.831Z,6.95
2023-04-09T09:27:12.019Z,7.57
2023-04-09T09:29:44.834Z,7.47
2023-04-09T09:37:36.213Z,6.88
2023-04-09T09:40:12.280Z,6.28
2023-04-09T09:42:57.873Z,6.53
2023-04-09T09:45:27.612Z,6.68
2023-04-09T09:47:57.053Z,7.00
2023-04-09T09:50:33.750Z,6.93
2023-04-09T09:53:10.640Z,6.53
2023-04-09T09:55:42.045Z,6.28
2023-04-09T09:58:18.843Z,6.68
2023-04-09T10:00:51.095Z,6.65
2023-04-09T10:03:25.273Z,6.95
2023-04-09T10:05:56.142Z,6.88
2023-04-09T10:08:25.768Z,6.75
2023-04-09T10:11:15.011Z,6.90
2023-04-09T10:13:57.003Z,6.43
2023-04-09T10:18:57.063Z,5.85
2023-04-09T10:21:37.531Z,6.82
2023-04-09T10:24:13.733Z,6.93
2023-04-09T10:26:44.737Z,6.57
2023-04-09T10:29:17.924Z,5.97
2023-04-09T10:32:02.076Z,6.55
2023-04-09T10:34:32.964Z,6.57
2023-04-09T10:37:02.425Z,6.37
2023-04-09T10:39:36.576Z,6.13
2023-04-09T10:42:16.443Z,6.40
2023-04-09T10:44:48.203Z,6.28
2023-04-09T10:50:17.839Z,5.50
2023-04-09T10:52:47.450Z,6.25
2023-04-09T10:55:38.435Z,5.78
2023-04-09T10:58:11.331Z,6.80
2023-04-09T11:00:52.382Z,6.40
2023-04-09T11:03:27.662Z,6.60
2023-04-09T11:06:02.028Z,6.40
2023-04-09T11:08:33.059Z,6.65
2023-04-09T11:11:08.489Z,6.70
2023-04-09T11:13:38.059Z,6.90
2023-04-09T11:16:09.440Z,8.27
2023-04-09T11:18:43.928Z,7.22
2023-04-09T11:21:14.322Z,7.28
2023-04-09T11:23:54.183Z,6.88
2023-04-09T11:26:26.343Z,6.45
2023-04-09T11:28:59.273Z,7.03
2023-04-09T11:31:37.663Z,6.57
2023-04-09T11:34:07.164Z,6.75
2023-04-09T11:36:37.617Z,6.53
2023-04-09T11:39:07.155Z,7.25
2023-04-09T11:41:36.763Z,7.72
2023-04-09T11:44:06.193Z,7.10
2023-04-09T11:46:42.912Z,7.35
2023-04-09T11:49:13.520Z,7.28
2023-04-09T11:51:42.996Z,7.18
2023-04-09T11:54:14.286Z,6.20
2023-04-09T11:56:43.590Z,6.88
2023-04-09T11:59:16.242Z,7.32
2023-04-09T12:04:27.497Z,7.23
2023-04-09T12:09:34.241Z,7.22
2023-04-09T12:12:03.410Z,7.03
2023-04-09T12:14:32.663Z,6.90
2023-04-09T12:17:10.734Z,7.65
2023-04-09T12:19:40.089Z,7.30
2023-04-09T12:22:09.287Z,6.68
2023-04-09T12:24:38.618Z,6.88
2023-04-09T12:27:07.788Z,7.00
2023-04-09T12:29:37.131Z,6.82
2023-04-09T12:32:08.596Z,6.95
2023-04-09T12:34:37.882Z,6.47
2023-04-09T12:37:07.099Z,6.47
2023-04-09T12:39:51.525Z,6.20
2023-04-09T12:42:21.215Z,6.22
2023-04-09T12:52:29.452Z,6.95
2023-04-09T12:55:00.306Z,7.47
2023-04-09T12:57:34.701Z,6.88
2023-04-09T13:00:04.332Z,7.93
2023-04-09T13:02:34.616Z,6.65
2023-04-09T13:05:37.753Z,6.47
2023-04-09T13:08:22.114Z,6.80
2023-04-09T13:10:51.545Z,7.28
2023-04-09T13:13:21.140Z,6.80
2023-04-09T13:15:50.654Z,6.18
2023-04-09T13:18:19.957Z,7.45
2023-04-09T13:20:55.829Z,6.97
2023-04-09T13:23:27.284Z,7.20
2023-04-09T13:25:56.970Z,7.45
2023-04-09T13:28:26.643Z,7.10
2023-04-09T13:31:19.983Z,6.32
2023-04-09T13:33:49.284Z,6.93
2023-04-09T13:36:18.444Z,7.20
2023-04-09T13:41:36.442Z,6.47
2023-04-09T13:44:11.560Z,6.65
2023-04-09T13:46:41.140Z,7.05
2023-04-09T13:49:10.362Z,7.13
2023-04-09T13:51:40.063Z,6.22
2023-04-09T13:54:11.302Z,6.90
2023-04-09T13:56:41.483Z,7.00
2023-04-09T13:59:10.649Z,6.43
2023-04-09T14:01:40.558Z,7.28
2023-04-09T14:04:10.957Z,6.70
2023-04-09T14:06:40.203Z,7.28
2023-04-09T14:09:12.161Z,6.97
2023-04-09T14:11:41.674Z,8.13
2023-04-09T14:14:16.379Z,7.68
2023-04-09T14:16:45.598Z,8.45
2023-04-09T14:19:14.926Z,9.23
2023-04-09T14:21:44.320Z,9.05
2023-04-09T14:24:15.577Z,7.88
2023-04-09T14:26:50.330Z,7.68
2023-04-09T14:29:19.616Z,7.32
2023-04-09T14:31:55.338Z,6.95
2023-04-09T14:34:26.468Z,7.18
2023-04-09T14:36:55.755Z,7.28
2023-04-09T14:39:31.882Z,7.40
2023-04-09T14:42:01.414Z,6.78
2023-04-09T14:44:31.383Z,6.97
2023-04-09T14:47:06.112Z,8.50
2023-04-09T14:49:40.384Z,7.70
2023-04-09T14:52:14.994Z,7.10
2023-04-09T14:54:46.135Z,7.55
2023-04-09T14:57:20.872Z,7.60
2023-04-09T14:59:50.153Z,7.18
2023-04-09T15:02:19.647Z,7.70
2023-04-09T15:04:49.273Z,8.20
2023-04-09T15:07:19.021Z,6.88
2023-04-09T15:09:50.232Z,8.52
2023-04-09T15:12:19.956Z,7.15
2023-04-09T15:14:49.855Z,7.65
2023-04-09T15:17:19.154Z,7.55
2023-04-09T15:19:48.686Z,8.55
2023-04-09T15:22:18.098Z,8.45
2023-04-09T15:24:52.427Z,8.45
2023-04-09T15:27:23.738Z,9.00
2023-04-09T15:29:53.217Z,8.95
2023-04-09T15:32:23.078Z,9.05
2023-04-09T15:34:52.549Z,8.68
2023-04-09T15:37:23.751Z,9.57
2023-04-09T15:39:53.220Z,12.75
2023-04-09T15:42:25.527Z,14.70
2023-04-09T15:44:54.823Z,11.55
2023-04-09T15:47:24.148Z,10.73
2023-04-09T15:49:59.273Z,10.20
2023-04-09T15:52:28.640Z,10.27
2023-04-09T15:54:57.807Z,9.32
2023-04-09T15:57:29.222Z,8.05
2023-04-09T15:59:58.625Z,8.50
2023-04-09T16:02:27.925Z,9.75
2023-04-09T16:04:57.562Z,9.05
2023-04-09T16:07:31.890Z,9.32
2023-04-09T16:10:07.091Z,9.00
2023-04-09T16:12:38.631Z,9.25
2023-04-09T16:15:12.100Z,7.95
2023-04-09T16:17:47.404Z,7.45
2023-04-09T16:20:16.906Z,7.80
2023-04-09T16:22:46.078Z,8.23
2023-04-09T16:25:15.264Z,10.13
2023-04-09T16:27:46.530Z,7.65
2023-04-09T16:30:15.945Z,7.53
2023-04-09T16:32:45.217Z,9.27
2023-04-09T16:35:14.426Z,10.30
2023-04-09T16:37:43.622Z,9.68
2023-04-09T16:40:13.064Z,9.50
2023-04-09T16:42:42.238Z,7.90
2023-04-09T16:45:14.065Z,7.72
2023-04-09T16:47:51.418Z,11.70
2023-04-09T16:50:21.985Z,3.97
2023-04-09T16:52:51.309Z,4.05
2023-04-09T16:55:21.186Z,4.50
2023-04-09T16:57:56.759Z,5.07
2023-04-09T17:00:29.344Z,5.53
2023-04-09T17:05:48.366Z,6.38
2023-04-09T17:08:23.823Z,10.50
2023-04-09T17:11:01.929Z,8.70
2023-04-09T17:13:37.324Z,8.30
2023-04-09T17:16:13.118Z,8.70
2023-04-09T17:18:42.395Z,9.52
2023-04-09T17:21:12.149Z,8.93
2023-04-09T17:23:42.306Z,9.40
2023-04-09T17:26:17.466Z,9.07
2023-04-09T17:28:46.737Z,10.35
2023-04-09T17:31:18.839Z,9.02
2023-04-09T17:33:48.978Z,10.60
2023-04-09T17:36:24.559Z,9.15
2023-04-09T17:38:56.049Z,11.30
2023-04-09T17:41:32.339Z,9.73
2023-04-09T17:44:01.590Z,11.07
2023-04-09T17:46:33.058Z,10.50
2023-04-09T17:49:02.374Z,10.32
2023-04-09T17:51:31.739Z,10.77
2023-04-09T17:54:11.535Z,9.63
2023-04-09T17:56:40.830Z,10.50
2023-04-09T17:59:10.238Z,11.15
2023-04-09T18:01:41.686Z,12.63
2023-04-09T18:04:11.273Z,11.65
2023-04-09T18:06:40.856Z,11.80
2023-04-09T18:09:15.576Z,11.20
2023-04-09T18:11:54.466Z,11.05
2023-04-09T18:14:24.743Z,12.05
2023-04-09T18:17:01.498Z,11.52
2023-04-09T18:22:00.329Z,9.45
2023-04-09T18:24:29.953Z,10.07
2023-04-09T18:27:07.032Z,10.23
2023-04-09T18:32:12.806Z,9.15
2023-04-09T18:34:42.026Z,9.90
2023-04-09T18:37:11.207Z,10.23
2023-04-09T18:39:40.642Z,11.90
2023-04-09T18:42:09.713Z,12.32
2023-04-09T18:44:44.330Z,14.48
2023-04-09T18:47:15.601Z,16.20
2023-04-09T18:49:44.977Z,14.82
2023-04-09T18:52:14.257Z,15.20
2023-04-09T18:54:43.560Z,13.07
2023-04-09T18:57:16.703Z,13.48
2023-04-09T18:59:48.243Z,12.73
2023-04-09T19:02:24.809Z,11.75
2023-04-09T19:05:00.538Z,11.10
2023-04-09T19:07:30.060Z,10.50
2023-04-09T19:09:59.307Z,11.15
2023-04-09T19:12:28.867Z,9.60
2023-04-09T19:15:00.063Z,9.77
2023-04-09T19:17:31.829Z,9.00
2023-04-09T19:20:06.143Z,10.40
2023-04-09T19:22:35.319Z,8.25
2023-04-09T19:25:04.556Z,7.85
2023-04-09T19:27:39.228Z,7.75
2023-04-09T19:30:09.820Z,7.70
2023-04-09T19:32:41.464Z,8.02
2023-04-09T19:37:44.675Z,9.43
2023-04-09T19:40:16.524Z,9.00
2023-04-09T19:42:45.902Z,10.05
2023-04-09T19:45:15.362Z,9.88
2023-04-09T19:47:46.670Z,8.75
2023-04-09T19:50:21.098Z,8.77
2023-04-09T19:52:50.327Z,9.40
2023-04-09T19:55:19.756Z,7.70
2023-04-09T19:57:49.270Z,8.27
2023-04-09T20:00:18.555Z,7.93
2023-04-09T20:02:49.883Z,7.60
2023-04-09T20:05:21.006Z,7.80
2023-04-09T20:07:51.405Z,7.13
2023-04-09T20:10:30.722Z,7.65
2023-04-09T20:13:01.913Z,8.07
2023-04-09T20:15:31.540Z,7.03
2023-04-09T20:18:03.089Z,7.35
2023-04-09T20:20:32.730Z,7.43
2023-04-09T20:23:01.957Z,6.70
2023-04-09T20:25:34.584Z,7.30
2023-04-09T20:28:04.443Z,7.47
2023-04-09T20:30:33.916Z,7.68
2023-04-09T20:33:11.769Z,6.95
2023-04-09T20:35:46.093Z,7.05
2023-04-09T20:38:20.171Z,6.75
2023-04-09T20:40:51.557Z,8.05
2023-04-09T20:43:21.276Z,6.20
2023-04-09T20:45:50.685Z,7.85
2023-04-09T20:48:21.825Z,6.78
2023-04-09T20:50:52.048Z,7.68
2023-04-09T20:53:21.627Z,7.25
2023-04-09T20:55:51.729Z,6.75
2023-04-09T20:58:27.158Z,7.20
2023-04-09T21:01:06.465Z,7.95
2023-04-09T21:03:38.206Z,8.85
2023-04-09T21:06:08.638Z,9.02
2023-04-09T21:08:42.288Z,8.85
2023-04-09T21:11:11.596Z,9.65
2023-04-09T21:13:53.845Z,9.40
2023-04-09T21:16:25.757Z,9.23
2023-04-09T21:18:57.004Z,8.40
2023-04-09T21:21:28.118Z,9.48
2023-04-09T21:23:57.509Z,8.52
2023-04-09T21:26:26.832Z,8.32
2023-04-09T21:28:56.265Z,8.18
2023-04-09T21:31:25.592Z,7.43
2023-04-09T21:33:56.676Z,8.60
2023-04-09T21:36:27.968Z,7.65
2023-04-09T21:38:57.220Z,8.40
2023-04-09T21:41:26.757Z,8.23
2023-04-09T21:43:56.329Z,8.10
2023-04-09T21:46:25.889Z,7.88
2023-04-09T21:48:58.111Z,8.02
2023-04-09T21:51:32.482Z,7.95
2023-04-09T21:54:06.425Z,8.23
2023-04-09T21:56:36.393Z,7.53
2023-04-09T21:59:05.637Z,8.65
2023-04-09T22:01:35.465Z,8.10
2023-04-09T22:06:41.753Z,7.78
2023-04-09T22:09:17.233Z,7.88
2023-04-09T22:11:47.122Z,7.93
2023-04-09T22:14:16.347Z,8.02
2023-04-09T22:16:45.778Z,7.88
2023-04-09T22:19:21.861Z,7.50
2023-04-09T22:21:51.392Z,8.35
2023-04-09T22:24:26.226Z,8.27
2023-04-09T22:26:55.626Z,8.57
2023-04-09T22:29:24.695Z,9.10
2023-04-09T22:31:53.999Z,9.77
2023-04-09T22:34:26.438Z,11.63
2023-04-09T22:36:55.679Z,12.27
2023-04-09T22:39:24.789Z,13.50
2023-04-09T22:41:54.324Z,14.77
2023-04-09T22:44:23.610Z,15.55
2023-04-09T22:46:57.959Z,15.98
2023-04-09T22:49:29.168Z,16.58
2023-04-09T22:52:05.334Z,15.52
2023-04-09T22:54:34.552Z,15.50
2023-04-09T22:57:09.030Z,15.30
2023-04-09T22:59:40.616Z,16.88
2023-04-09T23:04:51.973Z,15.85
2023-04-09T23:07:22.856Z,15.65
2023-04-09T23:09:54.489Z,15.13
2023-04-09T23:12:28.686Z,14.45
2023-04-09T23:15:03.190Z,13.65
2023-04-09T23:17:37.724Z,14.57
2023-04-09T23:20:11.076Z,14.63
2023-04-09T23:22:45.541Z,14.00
2023-04-09T23:25:15.252Z,12.00
2023-04-09T23:27:44.976Z,12.40
2023-04-09T23:30:21.397Z,12.40
2023-04-09T23:32:52.181Z,12.77
2023-04-09T23:35:28.592Z,10.45
2023-04-09T23:37:57.841Z,11.10
2023-04-09T23:40:27.013Z,10.88
2023-04-09T23:42:56.735Z,10.00
2023-04-09T23:45:25.886Z,9.68
2023-04-09T23:48:00.251Z,9.63
2023-04-09T23:50:39.069Z,9.02
2023-04-09T23:55:44.952Z,9.32
2023-04-09T23:58:21.067Z,9.13
